createdAt,value
2019-05-10T00:00:23.530Z,98980.81
2019-05-10T00:05:45.319Z,98985.61
2019-05-10T00:10:50.447Z,98993.76
2019-05-10T00:15:54.040Z,98983.55
2019-05-10T00:20:57.652Z,98979.14
2019-05-10T00:26:01.206Z,98972.34
2019-05-10T00:31:04.902Z,98978.48
2019-05-10T00:36:08.454Z,98974.23
2019-05-10T00:41:12.055Z,98974.91
2019-05-10T00:46:15.614Z,98976.76
2019-05-10T00:51:19.227Z,98975.11
2019-05-10T00:56:22.764Z,98970.73
2019-05-10T01:01:26.358Z,98976.30
2019-05-10T01:06:29.914Z,98980.28
2019-05-10T01:11:33.511Z,98983.02
2019-05-10T01:16:37.061Z,98981.94
2019-05-10T01:21:40.658Z,98985.98
2019-05-10T01:26:44.754Z,98986.91
2019-05-10T01:31:48.318Z,98988.59
2019-05-10T01:36:51.902Z,98977.33
2019-05-10T01:41:55.488Z,98980.64
2019-05-10T01:46:59.045Z,98992.31
2019-05-10T01:52:02.624Z,98991.23
2019-05-10T01:57:06.219Z,98989.28
2019-05-10T02:02:09.847Z,98993.53
2019-05-10T02:07:13.415Z,98993.53
2019-05-10T02:12:16.983Z,99011.73
2019-05-10T02:17:20.552Z,99007.58
2019-05-10T02:22:24.224Z,99004.06
2019-05-10T02:27:27.809Z,99015.12
2019-05-10T02:32:31.395Z,99018.02
2019-05-10T02:37:35.142Z,99024.38
2019-05-10T02:42:38.728Z,99032.12
2019-05-10T02:47:42.301Z,99025.42
2019-05-10T02:52:45.876Z,99028.02
2019-05-10T02:57:49.475Z,99030.41
2019-05-10T03:02:53.077Z,99033.87
2019-05-10T03:07:57.037Z,99033.00
2019-05-10T03:13:01.799Z,99035.94
2019-05-10T03:18:06.039Z,99038.75
2019-05-10T03:23:10.578Z,99045.69
2019-05-10T03:28:14.146Z,99050.20
2019-05-10T03:33:17.726Z,99050.80
2019-05-10T03:38:21.344Z,99061.47
2019-05-10T03:43:24.911Z,99067.36
2019-05-10T03:48:28.487Z,99067.18
2019-05-10T03:53:32.038Z,99071.27
2019-05-10T03:58:35.615Z,99062.55
2019-05-10T04:03:39.665Z,99072.98
2019-05-10T04:08:43.227Z,99076.30
2019-05-10T04:13:46.824Z,99072.17
2019-05-10T04:18:50.379Z,99076.70
2019-05-10T04:23:53.996Z,99078.04
2019-05-10T04:28:57.530Z,99084.53
2019-05-10T04:34:01.118Z,99083.75
2019-05-10T04:39:06.556Z,99095.57
2019-05-10T04:44:10.125Z,99093.09
2019-05-10T04:49:13.734Z,99097.95
2019-05-10T04:54:17.274Z,99105.64
2019-05-10T04:59:20.835Z,99103.90
2019-05-10T05:04:24.429Z,99103.90
2019-05-10T05:09:27.983Z,99110.84
2019-05-10T05:14:31.544Z,99117.45
2019-05-10T05:19:35.154Z,99122.39
2019-05-10T05:24:38.701Z,99134.77
2019-05-10T05:29:42.310Z,99140.92
2019-05-10T05:34:45.871Z,99146.69
2019-05-10T05:39:49.452Z,99143.23
2019-05-10T05:44:53.003Z,99149.83
2019-05-10T05:49:56.603Z,99156.96
2019-05-10T05:55:00.146Z,99150.38
2019-05-10T06:00:06.668Z,99158.05
2019-05-10T06:05:10.209Z,99166.73
2019-05-10T06:10:16.921Z,99169.43
2019-05-10T06:15:23.123Z,99173.39
2019-05-10T06:20:24.378Z,99172.67
2019-05-10T06:25:39.567Z,99173.78
2019-05-10T06:30:33.246Z,99178.66
2019-05-10T06:35:36.818Z,99180.06
2019-05-10T06:40:46.890Z,99188.28
2019-05-10T06:45:46.701Z,99192.77
2019-05-10T06:50:51.001Z,99192.20
2019-05-10T06:55:54.563Z,99198.78
2019-05-10T07:00:58.151Z,99199.97
2019-05-10T07:06:01.703Z,99204.51
2019-05-10T07:11:05.669Z,99213.87
2019-05-10T07:16:09.220Z,99210.04
2019-05-10T07:21:12.786Z,99201.44
2019-05-10T07:26:22.902Z,99210.13
2019-05-10T07:31:23.604Z,99214.89
2019-05-10T07:36:30.539Z,99217.97
2019-05-10T07:41:32.278Z,99225.23
2019-05-10T07:46:40.237Z,99233.56
2019-05-10T07:51:41.650Z,99239.94
2019-05-10T07:56:47.803Z,99243.24
2019-05-10T08:01:51.441Z,99245.03
2019-05-10T08:06:54.982Z,99246.84
2019-05-10T08:12:03.235Z,99244.09
2019-05-10T08:17:06.266Z,99260.96
2019-05-10T08:22:10.285Z,99260.66
2019-05-10T08:27:14.757Z,99265.08
2019-05-10T08:32:19.333Z,99272.58
2019-05-10T08:37:33.094Z,99276.80
2019-05-10T08:42:43.840Z,99280.12
2019-05-10T08:47:34.764Z,99287.67
2019-05-10T08:52:38.320Z,99296.78
2019-05-10T08:57:44.351Z,99304.03
2019-05-10T09:02:47.282Z,99308.69
2019-05-10T09:07:52.067Z,99317.88
2019-05-10T09:12:58.067Z,99330.16
2019-05-10T09:18:04.310Z,99338.84
2019-05-10T09:23:08.554Z,99346.76
2019-05-10T09:28:16.808Z,99354.30
2019-05-10T09:33:17.002Z,99354.80
2019-05-10T09:38:22.134Z,99361.62
2019-05-10T09:43:25.830Z,99366.04
2019-05-10T09:53:32.068Z,99369.95
2019-05-10T09:58:38.501Z,99372.34
2019-05-10T10:03:43.638Z,99375.63
2019-05-10T10:08:49.291Z,99374.38
2019-05-10T10:13:59.296Z,99380.39
2019-05-10T10:18:57.401Z,99382.34
2019-05-10T10:24:12.558Z,99388.19
2019-05-10T10:29:07.377Z,99380.34
2019-05-10T10:34:11.262Z,99384.03
2019-05-10T10:39:16.911Z,99393.41
2019-05-10T10:44:20.159Z,99398.14
2019-05-10T10:49:28.063Z,99406.33
2019-05-10T10:54:36.238Z,99396.90
2019-05-10T10:59:34.329Z,99398.68
2019-05-10T11:04:40.389Z,99397.16
2019-05-10T11:09:43.201Z,99398.51
2019-05-10T11:14:46.794Z,99404.23
2019-05-10T11:19:50.342Z,99410.12
2019-05-10T11:25:00.710Z,99411.47
2019-05-10T11:30:00.878Z,99420.43
2019-05-10T11:35:05.972Z,99415.77
2019-05-10T11:40:11.329Z,99422.22
2019-05-10T11:45:14.995Z,99417.91
2019-05-10T11:55:23.904Z,99419.64
2019-05-10T11:59:05.164Z,99418.52
2019-05-10T12:05:32.855Z,99417.40
2019-05-10T12:10:43.068Z,99413.03
2019-05-10T12:15:43.175Z,99414.58
2019-05-10T12:21:00.374Z,99416.81
2019-05-10T12:26:03.776Z,99415.55
2019-05-10T12:26:49.190Z,99426.50
2019-05-10T12:30:57.968Z,99427.58
2019-05-10T12:36:02.415Z,99423.57
2019-05-10T12:41:06.299Z,99428.78
2019-05-10T12:46:10.552Z,99419.81
2019-05-10T12:51:16.220Z,99434.39
2019-05-10T12:56:19.698Z,99431.99
2019-05-10T13:01:25.785Z,99442.49
2019-05-10T13:06:28.709Z,99426.92
2019-05-10T13:11:32.617Z,99440.48
2019-05-10T13:16:36.282Z,99452.70
2019-05-10T13:21:39.855Z,99449.25
2019-05-10T13:26:43.414Z,99459.77
2019-05-10T13:31:47.037Z,99465.31
2019-05-10T13:36:50.683Z,99469.59
2019-05-10T13:41:57.303Z,99461.06
2019-05-10T13:46:59.623Z,99475.14
2019-05-10T13:52:03.172Z,99485.09
2019-05-10T13:57:06.821Z,99485.90
2019-05-10T14:02:10.352Z,99492.16
2019-05-10T14:07:13.924Z,99510.11
2019-05-10T14:12:23.244Z,99514.03
2019-05-10T14:22:25.420Z,99507.17
2019-05-10T14:27:29.955Z,99507.20
2019-05-10T14:32:34.298Z,99511.19
2019-05-10T14:37:37.913Z,99508.24
2019-05-10T14:42:41.520Z,99543.81
2019-05-10T14:47:47.784Z,99539.84
2019-05-10T14:52:50.505Z,99549.31
2019-05-10T14:57:54.058Z,99547.23
2019-05-10T15:03:02.001Z,99549.34
2019-05-10T15:08:02.931Z,99553.81
2019-05-10T15:13:06.500Z,99556.35
2019-05-10T15:18:10.083Z,99567.36
2019-05-10T15:23:13.769Z,99568.67
2019-05-10T15:28:17.373Z,99572.69
2019-05-10T15:33:21.132Z,99568.86
2019-05-10T15:38:24.719Z,99576.86
2019-05-10T15:43:28.310Z,99579.61
2019-05-10T15:48:36.611Z,99579.55
2019-05-10T15:53:37.567Z,99581.20
2019-05-10T15:58:43.016Z,99585.14
2019-05-10T16:03:47.613Z,99578.73
2019-05-10T16:08:51.513Z,99583.69
2019-05-10T16:13:59.949Z,99580.27
2019-05-10T16:19:00.460Z,99588.74
2019-05-10T16:24:05.015Z,99581.27
2019-05-10T16:29:08.658Z,99581.27
2019-05-10T16:34:12.219Z,99588.06
2019-05-10T16:39:15.805Z,99597.03
2019-05-10T16:44:21.022Z,99599.64
2019-05-10T16:49:25.968Z,99601.03
2019-05-10T16:54:30.470Z,99604.16
2019-05-10T16:59:35.746Z,99601.96
2019-05-10T17:04:39.927Z,99608.36
2019-05-10T17:09:43.895Z,99614.56
2019-05-10T17:14:50.623Z,99620.92
2019-05-10T17:19:54.537Z,99628.45
2019-05-10T17:25:03.486Z,99633.39
2019-05-10T17:30:06.171Z,99638.41
2019-05-10T17:35:10.416Z,99646.87
2019-05-10T17:40:14.280Z,99652.21
2019-05-10T17:45:18.985Z,99656.31
2019-05-10T17:50:23.507Z,99659.92
2019-05-10T17:55:27.733Z,99665.30
2019-05-10T18:00:35.544Z,99668.88
2019-05-10T18:05:44.544Z,99671.59
2019-05-10T18:10:44.419Z,99675.61
2019-05-10T18:15:48.010Z,99686.86
2019-05-10T18:20:51.751Z,99690.68
2019-05-10T18:25:58.640Z,99696.73
2019-05-10T18:31:00.679Z,99699.11
2019-05-10T18:36:04.805Z,99695.45
2019-05-10T18:41:09.998Z,99701.44
2019-05-10T18:46:13.721Z,99713.69
2019-05-10T18:51:17.868Z,99720.12
2019-05-10T18:56:25.308Z,99726.17
2019-05-10T19:01:32.871Z,99731.48
2019-05-10T19:06:33.226Z,99740.88
2019-05-10T19:11:39.158Z,99753.36
2019-05-10T19:16:42.124Z,99756.25
2019-05-10T19:21:45.690Z,99758.95
2019-05-10T19:26:49.258Z,99767.48
2019-05-10T19:31:52.859Z,99767.43
2019-05-10T19:36:56.738Z,99773.44
2019-05-10T19:42:04.019Z,99774.48
2019-05-10T19:47:05.765Z,99771.09
2019-05-10T19:52:09.431Z,99780.39
2019-05-10T19:57:16.379Z,99781.89
2019-05-10T20:02:18.447Z,99786.46
2019-05-10T20:07:21.987Z,99795.75
2019-05-10T20:12:25.564Z,99804.76
2019-05-10T20:17:29.302Z,99803.59
2019-05-10T20:22:35.999Z,99807.20
2019-05-10T20:27:38.581Z,99805.01
2019-05-10T20:32:42.383Z,99818.23
2019-05-10T20:38:00.641Z,99816.04
2019-05-10T20:42:51.392Z,99818.66
2019-05-10T20:47:54.979Z,99822.97
2019-05-10T20:52:58.586Z,99826.88
2019-05-10T20:58:02.170Z,99825.05
2019-05-10T21:03:05.852Z,99828.50
2019-05-10T21:08:16.980Z,99827.67
2019-05-10T21:13:14.764Z,99825.42
2019-05-10T21:18:18.346Z,99828.05
2019-05-10T21:23:21.959Z,99825.02
2019-05-10T21:28:25.528Z,99824.59
2019-05-10T21:33:29.108Z,99825.92
2019-05-10T21:38:33.674Z,99821.19
2019-05-10T21:43:37.272Z,99825.70
2019-05-10T21:48:40.892Z,99825.70
2019-05-10T21:53:44.450Z,99820.86
2019-05-10T21:58:48.037Z,99819.57
2019-05-10T22:03:51.652Z,99829.36
2019-05-10T22:08:55.481Z,99830.69
2019-05-10T22:13:59.087Z,99825.87
2019-05-10T22:19:03.204Z,99828.56
2019-05-10T22:24:06.885Z,99829.51
2019-05-10T22:29:10.453Z,99828.64
2019-05-10T22:34:14.036Z,99835.77
2019-05-10T22:39:17.601Z,99835.34
2019-05-10T22:44:21.529Z,99837.59
2019-05-10T22:49:25.102Z,99838.72
2019-05-10T22:54:28.771Z,99839.46
2019-05-10T22:59:32.337Z,99833.30
2019-05-10T23:04:35.951Z,99825.95
2019-05-10T23:09:39.657Z,99819.12
2019-05-10T23:14:43.355Z,99825.36
2019-05-10T23:19:47.032Z,99819.11
2019-05-10T23:24:50.602Z,99825.92
2019-05-10T23:29:54.177Z,99826.86
2019-05-10T23:34:57.783Z,99838.25
2019-05-10T23:40:01.344Z,99838.38
2019-05-10T23:45:06.333Z,99832.41
2019-05-10T23:50:09.942Z,99852.61
2019-05-10T23:55:13.535Z,99848.84
